sensor_id;sensor_type;location;lat;lon;timestamp;P1;durP1;ratioP1;P2;durP2;ratioP2
54909;SDS011;63189;51.240;9.964;2023-12-28T00:00:55;2.95;;;1.35;;
54909;SDS011;63189;51.240;9.964;2023-12-28T00:03:20;3.15;;;1.40;;
54909;SDS011;63189;51.240;9.964;2023-12-28T00:05:46;3.05;;;1.50;;
54909;SDS011;63189;51.240;9.964;2023-12-28T00:08:11;2.72;;;1.55;;
54909;SDS011;63189;51.240;9.964;2023-12-28T00:10:36;3.75;;;1.50;;
54909;SDS011;63189;51.240;9.964;2023-12-28T00:13:02;3.95;;;1.70;;
54909;SDS011;63189;51.240;9.964;2023-12-28T00:15:28;2.45;;;1.23;;
54909;SDS011;63189;51.240;9.964;2023-12-28T00:17:53;2.22;;;1.23;;
54909;SDS011;63189;51.240;9.964;2023-12-28T00:20:18;3.10;;;1.17;;
54909;SDS011;63189;51.240;9.964;2023-12-28T00:22:44;4.35;;;1.58;;
54909;SDS011;63189;51.240;9.964;2023-12-28T00:25:09;3.08;;;1.40;;
54909;SDS011;63189;51.240;9.964;2023-12-28T00:27:34;2.10;;;1.30;;
54909;SDS011;63189;51.240;9.964;2023-12-28T00:30:02;2.53;;;1.30;;
54909;SDS011;63189;51.240;9.964;2023-12-28T00:32:29;3.13;;;1.48;;
54909;SDS011;63189;51.240;9.964;2023-12-28T00:34:54;4.55;;;1.55;;
54909;SDS011;63189;51.240;9.964;2023-12-28T00:37:20;3.50;;;1.30;;
54909;SDS011;63189;51.240;9.964;2023-12-28T00:39:45;2.88;;;1.23;;
54909;SDS011;63189;51.240;9.964;2023-12-28T00:42:12;1.92;;;1.27;;
54909;SDS011;63189;51.240;9.964;2023-12-28T00:44:38;3.97;;;1.60;;
54909;SDS011;63189;51.240;9.964;2023-12-28T00:47:03;2.50;;;1.50;;
54909;SDS011;63189;51.240;9.964;2023-12-28T00:49:29;3.00;;;1.40;;
54909;SDS011;63189;51.240;9.964;2023-12-28T00:51:54;2.72;;;1.35;;
54909;SDS011;63189;51.240;9.964;2023-12-28T00:54:19;2.88;;;1.63;;
54909;SDS011;63189;51.240;9.964;2023-12-28T00:56:45;3.03;;;1.50;;
54909;SDS011;63189;51.240;9.964;2023-12-28T00:59:10;2.60;;;1.33;;
54909;SDS011;63189;51.240;9.964;2023-12-28T01:01:35;2.83;;;1.67;;
54909;SDS011;63189;51.240;9.964;2023-12-28T01:04:01;2.13;;;1.25;;
54909;SDS011;63189;51.240;9.964;2023-12-28T01:06:26;3.00;;;1.48;;
54909;SDS011;63189;51.240;9.964;2023-12-28T01:08:54;4.45;;;1.67;;
54909;SDS011;63189;51.240;9.964;2023-12-28T01:11:19;6.68;;;1.73;;
54909;SDS011;63189;51.240;9.964;2023-12-28T01:13:45;2.25;;;1.45;;
54909;SDS011;63189;51.240;9.964;2023-12-28T01:16:12;4.13;;;1.70;;
54909;SDS011;63189;51.240;9.964;2023-12-28T01:18:38;3.38;;;1.35;;
54909;SDS011;63189;51.240;9.964;2023-12-28T01:21:03;4.10;;;1.83;;
54909;SDS011;63189;51.240;9.964;2023-12-28T01:23:29;2.75;;;1.42;;
54909;SDS011;63189;51.240;9.964;2023-12-28T01:25:55;2.20;;;1.55;;
54909;SDS011;63189;51.240;9.964;2023-12-28T01:28:21;2.88;;;1.70;;
54909;SDS011;63189;51.240;9.964;2023-12-28T01:30:47;4.50;;;1.40;;
54909;SDS011;63189;51.240;9.964;2023-12-28T01:33:12;3.80;;;1.75;;
54909;SDS011;63189;51.240;9.964;2023-12-28T01:35:38;2.95;;;1.25;;
54909;SDS011;63189;51.240;9.964;2023-12-28T01:38:03;3.10;;;1.50;;
54909;SDS011;63189;51.240;9.964;2023-12-28T01:40:29;3.15;;;1.75;;
54909;SDS011;63189;51.240;9.964;2023-12-28T01:42:54;3.67;;;1.65;;
54909;SDS011;63189;51.240;9.964;2023-12-28T01:45:19;5.70;;;1.90;;
54909;SDS011;63189;51.240;9.964;2023-12-28T01:47:45;3.20;;;1.30;;
54909;SDS011;63189;51.240;9.964;2023-12-28T01:50:12;3.50;;;1.70;;
54909;SDS011;63189;51.240;9.964;2023-12-28T01:52:38;2.25;;;1.33;;
54909;SDS011;63189;51.240;9.964;2023-12-28T01:55:03;3.00;;;1.48;;
54909;SDS011;63189;51.240;9.964;2023-12-28T01:57:30;2.70;;;1.73;;
54909;SDS011;63189;51.240;9.964;2023-12-28T01:59:55;2.17;;;1.55;;
54909;SDS011;63189;51.240;9.964;2023-12-28T02:02:26;3.78;;;1.60;;
54909;SDS011;63189;51.240;9.964;2023-12-28T02:04:51;4.70;;;1.80;;
54909;SDS011;63189;51.240;9.964;2023-12-28T02:07:17;3.70;;;1.90;;
54909;SDS011;63189;51.240;9.964;2023-12-28T02:09:45;2.63;;;1.58;;
54909;SDS011;63189;51.240;9.964;2023-12-28T02:12:10;4.88;;;1.90;;
54909;SDS011;63189;51.240;9.964;2023-12-28T02:14:36;3.17;;;1.60;;
54909;SDS011;63189;51.240;9.964;2023-12-28T02:17:06;2.95;;;1.50;;
54909;SDS011;63189;51.240;9.964;2023-12-28T02:19:47;4.97;;;1.75;;
54909;SDS011;63189;51.240;9.964;2023-12-28T02:22:16;2.95;;;1.40;;
54909;SDS011;63189;51.240;9.964;2023-12-28T02:24:55;4.80;;;1.90;;
54909;SDS011;63189;51.240;9.964;2023-12-28T02:27:24;3.25;;;1.67;;
54909;SDS011;63189;51.240;9.964;2023-12-28T02:29:50;2.20;;;1.48;;
54909;SDS011;63189;51.240;9.964;2023-12-28T02:32:15;4.00;;;1.90;;
54909;SDS011;63189;51.240;9.964;2023-12-28T02:34:46;2.60;;;1.70;;
54909;SDS011;63189;51.240;9.964;2023-12-28T02:37:17;3.30;;;1.60;;
54909;SDS011;63189;51.240;9.964;2023-12-28T02:39:43;5.07;;;1.90;;
54909;SDS011;63189;51.240;9.964;2023-12-28T02:42:12;2.95;;;1.67;;
54909;SDS011;63189;51.240;9.964;2023-12-28T02:44:37;4.20;;;2.00;;
54909;SDS011;63189;51.240;9.964;2023-12-28T02:47:03;3.83;;;1.67;;
54909;SDS011;63189;51.240;9.964;2023-12-28T02:49:28;2.85;;;1.75;;
54909;SDS011;63189;51.240;9.964;2023-12-28T02:51:55;2.92;;;1.77;;
54909;SDS011;63189;51.240;9.964;2023-12-28T02:54:20;5.78;;;2.00;;
54909;SDS011;63189;51.240;9.964;2023-12-28T02:56:45;3.17;;;2.03;;
54909;SDS011;63189;51.240;9.964;2023-12-28T02:59:11;3.85;;;1.92;;
54909;SDS011;63189;51.240;9.964;2023-12-28T03:01:36;4.07;;;1.60;;
54909;SDS011;63189;51.240;9.964;2023-12-28T03:04:02;4.55;;;2.10;;
54909;SDS011;63189;51.240;9.964;2023-12-28T03:06:27;2.75;;;1.67;;
54909;SDS011;63189;51.240;9.964;2023-12-28T03:08:52;3.92;;;2.05;;
54909;SDS011;63189;51.240;9.964;2023-12-28T03:11:18;3.78;;;1.80;;
54909;SDS011;63189;51.240;9.964;2023-12-28T03:13:46;2.70;;;1.70;;
54909;SDS011;63189;51.240;9.964;2023-12-28T03:16:13;4.00;;;2.33;;
54909;SDS011;63189;51.240;9.964;2023-12-28T03:18:38;3.35;;;1.77;;
54909;SDS011;63189;51.240;9.964;2023-12-28T03:21:04;3.97;;;2.28;;
54909;SDS011;63189;51.240;9.964;2023-12-28T03:23:29;5.22;;;2.20;;
54909;SDS011;63189;51.240;9.964;2023-12-28T03:25:55;5.45;;;1.90;;
54909;SDS011;63189;51.240;9.964;2023-12-28T03:28:20;3.75;;;2.33;;
54909;SDS011;63189;51.240;9.964;2023-12-28T03:30:46;4.50;;;2.00;;
54909;SDS011;63189;51.240;9.964;2023-12-28T03:33:12;3.97;;;2.10;;
54909;SDS011;63189;51.240;9.964;2023-12-28T03:35:37;4.88;;;1.77;;
54909;SDS011;63189;51.240;9.964;2023-12-28T03:38:02;7.60;;;2.05;;
54909;SDS011;63189;51.240;9.964;2023-12-28T03:40:28;3.78;;;1.70;;
54909;SDS011;63189;51.240;9.964;2023-12-28T03:42:53;6.13;;;2.08;;
54909;SDS011;63189;51.240;9.964;2023-12-28T03:45:19;4.30;;;2.20;;
54909;SDS011;63189;51.240;9.964;2023-12-28T03:47:45;5.35;;;1.75;;
54909;SDS011;63189;51.240;9.964;2023-12-28T03:50:10;3.35;;;1.88;;
54909;SDS011;63189;51.240;9.964;2023-12-28T03:52:36;3.58;;;2.08;;
54909;SDS011;63189;51.240;9.964;2023-12-28T03:55:01;3.50;;;2.08;;
54909;SDS011;63189;51.240;9.964;2023-12-28T03:57:28;4.53;;;2.28;;
54909;SDS011;63189;51.240;9.964;2023-12-28T03:59:53;6.93;;;1.77;;
54909;SDS011;63189;51.240;9.964;2023-12-28T04:02:19;3.67;;;2.13;;
54909;SDS011;63189;51.240;9.964;2023-12-28T04:04:44;4.10;;;2.38;;
54909;SDS011;63189;51.240;9.964;2023-12-28T04:07:09;3.15;;;1.80;;
54909;SDS011;63189;51.240;9.964;2023-12-28T04:09:35;3.83;;;2.30;;
54909;SDS011;63189;51.240;9.964;2023-12-28T04:12:00;3.75;;;2.40;;
54909;SDS011;63189;51.240;9.964;2023-12-28T04:14:26;2.60;;;1.80;;
54909;SDS011;63189;51.240;9.964;2023-12-28T04:16:51;4.00;;;2.10;;
54909;SDS011;63189;51.240;9.964;2023-12-28T04:19:16;5.05;;;2.28;;
54909;SDS011;63189;51.240;9.964;2023-12-28T04:21:42;3.00;;;1.92;;
54909;SDS011;63189;51.240;9.964;2023-12-28T04:24:09;4.10;;;2.08;;
54909;SDS011;63189;51.240;9.964;2023-12-28T04:26:34;4.07;;;2.10;;
54909;SDS011;63189;51.240;9.964;2023-12-28T04:29:00;4.25;;;2.28;;
54909;SDS011;63189;51.240;9.964;2023-12-28T04:31:25;4.13;;;2.08;;
54909;SDS011;63189;51.240;9.964;2023-12-28T04:33:51;5.22;;;2.25;;
54909;SDS011;63189;51.240;9.964;2023-12-28T04:36:16;4.45;;;2.25;;
54909;SDS011;63189;51.240;9.964;2023-12-28T04:38:42;5.38;;;2.17;;
54909;SDS011;63189;51.240;9.964;2023-12-28T04:41:09;4.30;;;2.03;;
54909;SDS011;63189;51.240;9.964;2023-12-28T04:43:34;4.60;;;2.42;;
54909;SDS011;63189;51.240;9.964;2023-12-28T04:46:06;3.83;;;2.05;;
54909;SDS011;63189;51.240;9.964;2023-12-28T04:48:31;3.67;;;2.10;;
54909;SDS011;63189;51.240;9.964;2023-12-28T04:50:57;4.10;;;2.10;;
54909;SDS011;63189;51.240;9.964;2023-12-28T04:53:22;4.25;;;1.73;;
54909;SDS011;63189;51.240;9.964;2023-12-28T04:55:48;4.60;;;2.42;;
54909;SDS011;63189;51.240;9.964;2023-12-28T04:58:13;4.75;;;2.03;;
54909;SDS011;63189;51.240;9.964;2023-12-28T05:00:39;3.40;;;1.77;;
54909;SDS011;63189;51.240;9.964;2023-12-28T05:03:04;3.35;;;2.00;;
54909;SDS011;63189;51.240;9.964;2023-12-28T05:05:31;2.85;;;1.95;;
54909;SDS011;63189;51.240;9.964;2023-12-28T05:07:56;3.03;;;1.92;;
54909;SDS011;63189;51.240;9.964;2023-12-28T05:10:24;2.10;;;1.58;;
54909;SDS011;63189;51.240;9.964;2023-12-28T05:12:53;3.63;;;1.80;;
54909;SDS011;63189;51.240;9.964;2023-12-28T05:15:18;4.30;;;2.30;;
54909;SDS011;63189;51.240;9.964;2023-12-28T05:17:47;5.13;;;2.00;;
54909;SDS011;63189;51.240;9.964;2023-12-28T05:20:15;4.85;;;2.22;;
54909;SDS011;63189;51.240;9.964;2023-12-28T05:26:07;3.20;;;1.67;;
54909;SDS011;63189;51.240;9.964;2023-12-28T05:28:38;2.38;;;1.60;;
54909;SDS011;63189;51.240;9.964;2023-12-28T05:31:05;7.40;;;2.38;;
54909;SDS011;63189;51.240;9.964;2023-12-28T05:33:30;4.30;;;2.00;;
54909;SDS011;63189;51.240;9.964;2023-12-28T05:36:43;4.00;;;1.80;;
54909;SDS011;63189;51.240;9.964;2023-12-28T05:39:14;3.90;;;1.52;;
54909;SDS011;63189;51.240;9.964;2023-12-28T05:41:42;3.63;;;1.70;;
54909;SDS011;63189;51.240;9.964;2023-12-28T05:44:07;3.35;;;1.77;;
54909;SDS011;63189;51.240;9.964;2023-12-28T05:46:33;2.53;;;1.70;;
54909;SDS011;63189;51.240;9.964;2023-12-28T05:48:58;4.25;;;1.77;;
54909;SDS011;63189;51.240;9.964;2023-12-28T05:51:24;4.72;;;2.15;;
54909;SDS011;63189;51.240;9.964;2023-12-28T05:53:49;3.67;;;1.80;;
54909;SDS011;63189;51.240;9.964;2023-12-28T05:56:14;3.45;;;1.92;;
54909;SDS011;63189;51.240;9.964;2023-12-28T05:58:40;3.22;;;1.83;;
54909;SDS011;63189;51.240;9.964;2023-12-28T06:01:06;4.53;;;2.72;;
54909;SDS011;63189;51.240;9.964;2023-12-28T06:03:32;3.95;;;2.20;;
54909;SDS011;63189;51.240;9.964;2023-12-28T06:05:57;3.40;;;2.25;;
54909;SDS011;63189;51.240;9.964;2023-12-28T06:08:22;5.78;;;2.40;;
54909;SDS011;63189;51.240;9.964;2023-12-28T06:10:48;4.32;;;2.08;;
54909;SDS011;63189;51.240;9.964;2023-12-28T06:13:13;4.22;;;2.20;;
54909;SDS011;63189;51.240;9.964;2023-12-28T06:15:40;4.60;;;2.42;;
54909;SDS011;63189;51.240;9.964;2023-12-28T06:18:05;5.03;;;2.70;;
54909;SDS011;63189;51.240;9.964;2023-12-28T06:20:30;3.13;;;2.38;;
54909;SDS011;63189;51.240;9.964;2023-12-28T06:22:56;5.38;;;2.40;;
54909;SDS011;63189;51.240;9.964;2023-12-28T06:25:21;4.10;;;2.35;;
54909;SDS011;63189;51.240;9.964;2023-12-28T06:27:47;2.92;;;1.95;;
54909;SDS011;63189;51.240;9.964;2023-12-28T06:30:12;4.97;;;2.28;;
54909;SDS011;63189;51.240;9.964;2023-12-28T06:32:38;3.40;;;2.00;;
54909;SDS011;63189;51.240;9.964;2023-12-28T06:35:03;3.72;;;2.17;;
54909;SDS011;63189;51.240;9.964;2023-12-28T06:37:29;5.15;;;2.38;;
54909;SDS011;63189;51.240;9.964;2023-12-28T06:39:54;3.80;;;2.30;;
54909;SDS011;63189;51.240;9.964;2023-12-28T06:42:20;4.57;;;2.35;;
54909;SDS011;63189;51.240;9.964;2023-12-28T06:44:45;3.95;;;2.50;;
54909;SDS011;63189;51.240;9.964;2023-12-28T06:47:13;5.03;;;2.40;;
54909;SDS011;63189;51.240;9.964;2023-12-28T06:49:38;4.45;;;2.60;;
54909;SDS011;63189;51.240;9.964;2023-12-28T06:52:05;3.95;;;2.25;;
54909;SDS011;63189;51.240;9.964;2023-12-28T06:54:32;5.25;;;2.47;;
54909;SDS011;63189;51.240;9.964;2023-12-28T06:56:57;6.45;;;3.05;;
54909;SDS011;63189;51.240;9.964;2023-12-28T06:59:23;5.10;;;2.70;;
54909;SDS011;63189;51.240;9.964;2023-12-28T07:01:48;4.10;;;2.75;;
54909;SDS011;63189;51.240;9.964;2023-12-28T07:04:14;4.75;;;2.60;;
54909;SDS011;63189;51.240;9.964;2023-12-28T07:06:40;5.63;;;2.58;;
54909;SDS011;63189;51.240;9.964;2023-12-28T07:09:05;8.52;;;4.88;;
54909;SDS011;63189;51.240;9.964;2023-12-28T07:11:31;8.77;;;3.80;;
54909;SDS011;63189;51.240;9.964;2023-12-28T07:13:56;6.18;;;2.85;;
54909;SDS011;63189;51.240;9.964;2023-12-28T07:16:21;4.50;;;2.45;;
54909;SDS011;63189;51.240;9.964;2023-12-28T07:18:47;5.18;;;2.78;;
54909;SDS011;63189;51.240;9.964;2023-12-28T07:21:12;6.43;;;2.83;;
54909;SDS011;63189;51.240;9.964;2023-12-28T07:23:37;7.07;;;3.13;;
54909;SDS011;63189;51.240;9.964;2023-12-28T07:26:03;4.10;;;2.33;;
54909;SDS011;63189;51.240;9.964;2023-12-28T07:28:29;4.75;;;2.30;;
54909;SDS011;63189;51.240;9.964;2023-12-28T07:31:00;3.90;;;2.28;;
54909;SDS011;63189;51.240;9.964;2023-12-28T07:33:54;4.68;;;2.90;;
54909;SDS011;63189;51.240;9.964;2023-12-28T07:36:20;4.90;;;2.95;;
54909;SDS011;63189;51.240;9.964;2023-12-28T07:38:46;4.75;;;2.80;;
54909;SDS011;63189;51.240;9.964;2023-12-28T07:41:11;4.28;;;2.35;;
54909;SDS011;63189;51.240;9.964;2023-12-28T07:43:36;3.58;;;2.13;;
54909;SDS011;63189;51.240;9.964;2023-12-28T07:46:02;4.05;;;2.47;;
54909;SDS011;63189;51.240;9.964;2023-12-28T07:48:27;4.85;;;2.47;;
54909;SDS011;63189;51.240;9.964;2023-12-28T07:50:55;3.28;;;2.30;;
54909;SDS011;63189;51.240;9.964;2023-12-28T07:53:21;4.35;;;2.40;;
54909;SDS011;63189;51.240;9.964;2023-12-28T07:55:46;2.97;;;2.08;;
54909;SDS011;63189;51.240;9.964;2023-12-28T07:58:12;4.57;;;2.50;;
54909;SDS011;63189;51.240;9.964;2023-12-28T08:00:37;4.05;;;2.30;;
54909;SDS011;63189;51.240;9.964;2023-12-28T08:03:03;5.10;;;2.50;;
54909;SDS011;63189;51.240;9.964;2023-12-28T08:05:29;4.65;;;2.83;;
54909;SDS011;63189;51.240;9.964;2023-12-28T08:07:54;3.65;;;2.40;;
54909;SDS011;63189;51.240;9.964;2023-12-28T08:10:21;4.43;;;2.38;;
54909;SDS011;63189;51.240;9.964;2023-12-28T08:12:46;4.07;;;2.50;;
54909;SDS011;63189;51.240;9.964;2023-12-28T08:15:11;5.30;;;2.75;;
54909;SDS011;63189;51.240;9.964;2023-12-28T08:17:37;4.88;;;2.83;;
54909;SDS011;63189;51.240;9.964;2023-12-28T08:20:03;4.72;;;2.50;;
54909;SDS011;63189;51.240;9.964;2023-12-28T08:22:29;3.88;;;2.40;;
54909;SDS011;63189;51.240;9.964;2023-12-28T08:24:54;7.47;;;2.45;;
54909;SDS011;63189;51.240;9.964;2023-12-28T08:27:20;4.90;;;2.15;;
54909;SDS011;63189;51.240;9.964;2023-12-28T08:29:45;4.10;;;2.45;;
54909;SDS011;63189;51.240;9.964;2023-12-28T08:32:11;3.95;;;2.20;;
54909;SDS011;63189;51.240;9.964;2023-12-28T08:34:36;4.93;;;2.50;;
54909;SDS011;63189;51.240;9.964;2023-12-28T08:37:02;4.82;;;2.72;;
54909;SDS011;63189;51.240;9.964;2023-12-28T08:39:28;5.50;;;2.50;;
54909;SDS011;63189;51.240;9.964;2023-12-28T08:41:53;4.53;;;2.13;;
54909;SDS011;63189;51.240;9.964;2023-12-28T08:44:19;7.18;;;2.72;;
54909;SDS011;63189;51.240;9.964;2023-12-28T08:46:44;3.90;;;2.33;;
54909;SDS011;63189;51.240;9.964;2023-12-28T08:49:10;3.75;;;2.30;;
54909;SDS011;63189;51.240;9.964;2023-12-28T08:51:36;4.70;;;2.80;;
54909;SDS011;63189;51.240;9.964;2023-12-28T08:54:04;3.30;;;2.22;;
54909;SDS011;63189;51.240;9.964;2023-12-28T08:56:29;4.70;;;2.55;;
54909;SDS011;63189;51.240;9.964;2023-12-28T08:58:55;3.90;;;2.40;;
54909;SDS011;63189;51.240;9.964;2023-12-28T09:01:21;5.20;;;2.30;;
54909;SDS011;63189;51.240;9.964;2023-12-28T09:03:51;3.50;;;2.15;;
54909;SDS011;63189;51.240;9.964;2023-12-28T09:06:18;2.88;;;2.05;;
54909;SDS011;63189;51.240;9.964;2023-12-28T09:08:46;3.78;;;2.53;;
54909;SDS011;63189;51.240;9.964;2023-12-28T09:11:16;3.88;;;2.40;;
54909;SDS011;63189;51.240;9.964;2023-12-28T09:13:41;5.28;;;2.13;;
54909;SDS011;63189;51.240;9.964;2023-12-28T09:16:07;5.72;;;2.70;;
54909;SDS011;63189;51.240;9.964;2023-12-28T09:18:34;2.75;;;2.08;;
54909;SDS011;63189;51.240;9.964;2023-12-28T09:21:02;3.60;;;2.33;;
54909;SDS011;63189;51.240;9.964;2023-12-28T09:23:28;6.05;;;2.33;;
54909;SDS011;63189;51.240;9.964;2023-12-28T09:25:53;5.20;;;2.80;;
54909;SDS011;63189;51.240;9.964;2023-12-28T09:28:19;5.35;;;2.75;;
54909;SDS011;63189;51.240;9.964;2023-12-28T09:30:44;3.72;;;2.30;;
54909;SDS011;63189;51.240;9.964;2023-12-28T09:33:10;3.55;;;2.33;;
54909;SDS011;63189;51.240;9.964;2023-12-28T09:35:35;3.65;;;1.98;;
54909;SDS011;63189;51.240;9.964;2023-12-28T09:38:03;4.35;;;2.20;;
54909;SDS011;63189;51.240;9.964;2023-12-28T09:40:28;4.22;;;2.38;;
54909;SDS011;63189;51.240;9.964;2023-12-28T09:45:36;5.30;;;2.22;;
54909;SDS011;63189;51.240;9.964;2023-12-28T09:48:02;3.92;;;2.10;;
54909;SDS011;63189;51.240;9.964;2023-12-28T09:50:29;4.55;;;1.98;;
54909;SDS011;63189;51.240;9.964;2023-12-28T09:52:55;5.45;;;2.40;;
54909;SDS011;63189;51.240;9.964;2023-12-28T09:55:20;7.05;;;2.05;;
54909;SDS011;63189;51.240;9.964;2023-12-28T09:57:46;5.80;;;2.22;;
54909;SDS011;63189;51.240;9.964;2023-12-28T10:00:11;4.90;;;2.20;;
54909;SDS011;63189;51.240;9.964;2023-12-28T10:02:37;4.43;;;1.80;;
54909;SDS011;63189;51.240;9.964;2023-12-28T10:05:06;4.25;;;1.65;;
54909;SDS011;63189;51.240;9.964;2023-12-28T10:07:32;2.95;;;1.88;;
54909;SDS011;63189;51.240;9.964;2023-12-28T10:09:57;3.28;;;1.83;;
54909;SDS011;63189;51.240;9.964;2023-12-28T10:12:23;3.65;;;1.75;;
54909;SDS011;63189;51.240;9.964;2023-12-28T10:14:50;4.10;;;1.90;;
54909;SDS011;63189;51.240;9.964;2023-12-28T10:17:15;3.75;;;1.67;;
54909;SDS011;63189;51.240;9.964;2023-12-28T10:19:41;4.90;;;2.05;;
54909;SDS011;63189;51.240;9.964;2023-12-28T10:22:06;5.35;;;2.22;;
54909;SDS011;63189;51.240;9.964;2023-12-28T10:24:32;4.35;;;2.08;;
54909;SDS011;63189;51.240;9.964;2023-12-28T10:26:57;4.13;;;1.90;;
54909;SDS011;63189;51.240;9.964;2023-12-28T10:29:26;5.60;;;1.95;;
54909;SDS011;63189;51.240;9.964;2023-12-28T10:31:51;6.15;;;1.90;;
54909;SDS011;63189;51.240;9.964;2023-12-28T10:34:17;5.07;;;1.98;;
54909;SDS011;63189;51.240;9.964;2023-12-28T10:36:43;5.70;;;1.92;;
54909;SDS011;63189;51.240;9.964;2023-12-28T10:39:10;3.45;;;2.00;;
54909;SDS011;63189;51.240;9.964;2023-12-28T10:41:41;3.90;;;1.60;;
54909;SDS011;63189;51.240;9.964;2023-12-28T10:44:08;5.00;;;1.70;;
54909;SDS011;63189;51.240;9.964;2023-12-28T10:46:41;2.60;;;1.33;;
54909;SDS011;63189;51.240;9.964;2023-12-28T10:49:11;2.72;;;1.30;;
54909;SDS011;63189;51.240;9.964;2023-12-28T10:51:40;3.92;;;1.45;;
54909;SDS011;63189;51.240;9.964;2023-12-28T10:56:49;2.65;;;1.42;;
54909;SDS011;63189;51.240;9.964;2023-12-28T11:02:25;4.43;;;1.58;;
54909;SDS011;63189;51.240;9.964;2023-12-28T11:04:57;6.07;;;1.48;;
54909;SDS011;63189;51.240;9.964;2023-12-28T11:07:25;2.00;;;1.10;;
54909;SDS011;63189;51.240;9.964;2023-12-28T11:09:57;4.75;;;1.05;;
54909;SDS011;63189;51.240;9.964;2023-12-28T11:12:29;2.97;;;1.35;;
54909;SDS011;63189;51.240;9.964;2023-12-28T11:14:58;5.45;;;1.60;;
54909;SDS011;63189;51.240;9.964;2023-12-28T11:17:24;6.38;;;1.30;;
54909;SDS011;63189;51.240;9.964;2023-12-28T11:19:52;3.85;;;1.50;;
54909;SDS011;63189;51.240;9.964;2023-12-28T11:22:19;5.05;;;1.50;;
54909;SDS011;63189;51.240;9.964;2023-12-28T11:24:45;4.25;;;1.45;;
54909;SDS011;63189;51.240;9.964;2023-12-28T11:27:11;5.82;;;1.30;;
54909;SDS011;63189;51.240;9.964;2023-12-28T11:29:38;4.68;;;1.65;;
54909;SDS011;63189;51.240;9.964;2023-12-28T11:32:03;2.17;;;1.48;;
54909;SDS011;63189;51.240;9.964;2023-12-28T11:34:29;3.00;;;1.30;;
54909;SDS011;63189;51.240;9.964;2023-12-28T11:36:59;3.17;;;1.33;;
54909;SDS011;63189;51.240;9.964;2023-12-28T11:39:32;4.20;;;1.20;;
54909;SDS011;63189;51.240;9.964;2023-12-28T11:42:08;5.85;;;1.92;;
54909;SDS011;63189;51.240;9.964;2023-12-28T11:44:43;5.53;;;1.48;;
54909;SDS011;63189;51.240;9.964;2023-12-28T11:47:16;4.88;;;1.40;;
54909;SDS011;63189;51.240;9.964;2023-12-28T11:49:46;3.72;;;1.00;;
54909;SDS011;63189;51.240;9.964;2023-12-28T11:52:23;4.97;;;1.55;;
54909;SDS011;63189;51.240;9.964;2023-12-28T11:54:50;2.67;;;1.00;;
54909;SDS011;63189;51.240;9.964;2023-12-28T11:57:16;4.15;;;1.60;;
54909;SDS011;63189;51.240;9.964;2023-12-28T11:59:42;3.33;;;1.13;;
54909;SDS011;63189;51.240;9.964;2023-12-28T12:02:08;5.22;;;1.10;;
54909;SDS011;63189;51.240;9.964;2023-12-28T12:04:37;3.40;;;1.25;;
54909;SDS011;63189;51.240;9.964;2023-12-28T12:07:05;3.72;;;1.38;;
54909;SDS011;63189;51.240;9.964;2023-12-28T12:09:31;4.13;;;1.20;;
54909;SDS011;63189;51.240;9.964;2023-12-28T12:12:02;4.70;;;1.48;;
54909;SDS011;63189;51.240;9.964;2023-12-28T12:14:29;4.05;;;1.33;;
54909;SDS011;63189;51.240;9.964;2023-12-28T12:16:55;3.47;;;1.08;;
54909;SDS011;63189;51.240;9.964;2023-12-28T12:19:24;5.05;;;1.33;;
54909;SDS011;63189;51.240;9.964;2023-12-28T12:21:57;4.28;;;1.20;;
54909;SDS011;63189;51.240;9.964;2023-12-28T12:24:23;2.30;;;0.90;;
54909;SDS011;63189;51.240;9.964;2023-12-28T12:26:52;3.92;;;1.52;;
54909;SDS011;63189;51.240;9.964;2023-12-28T12:29:17;4.05;;;1.30;;
54909;SDS011;63189;51.240;9.964;2023-12-28T12:31:44;3.00;;;1.40;;
54909;SDS011;63189;51.240;9.964;2023-12-28T12:34:11;6.72;;;2.08;;
54909;SDS011;63189;51.240;9.964;2023-12-28T12:36:40;3.63;;;1.75;;
54909;SDS011;63189;51.240;9.964;2023-12-28T12:39:05;4.72;;;1.95;;
54909;SDS011;63189;51.240;9.964;2023-12-28T12:41:32;2.65;;;1.30;;
54909;SDS011;63189;51.240;9.964;2023-12-28T12:44:01;4.18;;;1.60;;
54909;SDS011;63189;51.240;9.964;2023-12-28T12:46:26;3.47;;;1.17;;
54909;SDS011;63189;51.240;9.964;2023-12-28T12:48:55;3.75;;;1.63;;
54909;SDS011;63189;51.240;9.964;2023-12-28T12:51:22;3.20;;;1.15;;
54909;SDS011;63189;51.240;9.964;2023-12-28T12:53:47;2.88;;;1.38;;
54909;SDS011;63189;51.240;9.964;2023-12-28T12:56:12;3.45;;;1.10;;
54909;SDS011;63189;51.240;9.964;2023-12-28T12:58:38;1.55;;;1.02;;
54909;SDS011;63189;51.240;9.964;2023-12-28T13:01:04;2.42;;;1.10;;
54909;SDS011;63189;51.240;9.964;2023-12-28T13:03:29;2.53;;;1.35;;
54909;SDS011;63189;51.240;9.964;2023-12-28T13:05:55;5.28;;;1.33;;
54909;SDS011;63189;51.240;9.964;2023-12-28T13:08:21;3.25;;;1.27;;
54909;SDS011;63189;51.240;9.964;2023-12-28T13:10:47;2.38;;;1.00;;
54909;SDS011;63189;51.240;9.964;2023-12-28T13:13:14;3.60;;;1.10;;
54909;SDS011;63189;51.240;9.964;2023-12-28T13:15:40;3.95;;;1.15;;
54909;SDS011;63189;51.240;9.964;2023-12-28T13:18:05;5.95;;;2.00;;
54909;SDS011;63189;51.240;9.964;2023-12-28T13:20:33;3.10;;;1.23;;
54909;SDS011;63189;51.240;9.964;2023-12-28T13:22:59;2.60;;;1.10;;
54909;SDS011;63189;51.240;9.964;2023-12-28T13:25:30;3.60;;;1.20;;
54909;SDS011;63189;51.240;9.964;2023-12-28T13:28:04;2.65;;;1.20;;
54909;SDS011;63189;51.240;9.964;2023-12-28T13:30:30;3.95;;;1.30;;
54909;SDS011;63189;51.240;9.964;2023-12-28T13:32:55;4.68;;;1.40;;
54909;SDS011;63189;51.240;9.964;2023-12-28T13:35:24;2.35;;;1.00;;
54909;SDS011;63189;51.240;9.964;2023-12-28T13:37:49;1.98;;;0.90;;
54909;SDS011;63189;51.240;9.964;2023-12-28T13:40:14;3.53;;;1.35;;
54909;SDS011;63189;51.240;9.964;2023-12-28T13:42:40;1.65;;;1.10;;
54909;SDS011;63189;51.240;9.964;2023-12-28T13:45:06;5.35;;;1.38;;
54909;SDS011;63189;51.240;9.964;2023-12-28T13:47:32;4.88;;;1.10;;
54909;SDS011;63189;51.240;9.964;2023-12-28T13:49:57;3.70;;;1.58;;
54909;SDS011;63189;51.240;9.964;2023-12-28T13:52:23;2.55;;;1.20;;
54909;SDS011;63189;51.240;9.964;2023-12-28T13:54:48;3.78;;;1.40;;
54909;SDS011;63189;51.240;9.964;2023-12-28T13:57:14;5.78;;;1.33;;
54909;SDS011;63189;51.240;9.964;2023-12-28T13:59:39;4.53;;;1.30;;
54909;SDS011;63189;51.240;9.964;2023-12-28T14:02:05;5.22;;;1.60;;
54909;SDS011;63189;51.240;9.964;2023-12-28T14:04:30;7.60;;;2.65;;
54909;SDS011;63189;51.240;9.964;2023-12-28T14:06:56;2.88;;;1.73;;
54909;SDS011;63189;51.240;9.964;2023-12-28T14:09:21;6.38;;;2.45;;
54909;SDS011;63189;51.240;9.964;2023-12-28T14:11:47;4.15;;;1.63;;
54909;SDS011;63189;51.240;9.964;2023-12-28T14:14:12;3.67;;;1.85;;
54909;SDS011;63189;51.240;9.964;2023-12-28T14:16:39;3.65;;;1.50;;
54909;SDS011;63189;51.240;9.964;2023-12-28T14:19:05;4.50;;;1.40;;
54909;SDS011;63189;51.240;9.964;2023-12-28T14:21:36;5.10;;;1.38;;
54909;SDS011;63189;51.240;9.964;2023-12-28T14:24:03;4.90;;;1.83;;
54909;SDS011;63189;51.240;9.964;2023-12-28T14:26:30;4.57;;;1.38;;
54909;SDS011;63189;51.240;9.964;2023-12-28T14:28:57;4.05;;;1.10;;
54909;SDS011;63189;51.240;9.964;2023-12-28T14:31:24;3.00;;;1.30;;
54909;SDS011;63189;51.240;9.964;2023-12-28T14:33:52;2.00;;;1.23;;
54909;SDS011;63189;51.240;9.964;2023-12-28T14:36:21;2.63;;;1.35;;
54909;SDS011;63189;51.240;9.964;2023-12-28T14:38:49;3.65;;;1.50;;
54909;SDS011;63189;51.240;9.964;2023-12-28T14:41:15;3.97;;;1.40;;
54909;SDS011;63189;51.240;9.964;2023-12-28T14:43:40;3.33;;;1.33;;
54909;SDS011;63189;51.240;9.964;2023-12-28T14:46:05;4.15;;;1.30;;
54909;SDS011;63189;51.240;9.964;2023-12-28T14:48:31;4.13;;;1.33;;
54909;SDS011;63189;51.240;9.964;2023-12-28T14:50:56;3.30;;;1.30;;
54909;SDS011;63189;51.240;9.964;2023-12-28T14:53:22;4.20;;;1.40;;
54909;SDS011;63189;51.240;9.964;2023-12-28T14:55:50;3.80;;;1.40;;